Time;durP1;ratioP1;P1;durP2;ratioP2;P2;SDS_P1;SDS_P2;PMS_P1;PMS_P2;Temp;Humidity;BMP_temperature;BMP_pressure;BME280_temperature;BME280_humidity;BME280_pressure;Samples;Min_cycle;Max_cycle;Signal;HPM_P1;HPM_P2
2023/08/05 00:01:14;;;;;;;;;;;;;;;-144.99;nan;52437.91;4999682;28;19963;-62
2023/08/05 00:03:41;;;;;;;;;;;;;;;-144.99;nan;52452.16;4996650;28;20419;-64
2023/08/05 00:06:09;;;;;;;;;;;;;;;-144.99;nan;52435.88;4998227;28;19971;-64
2023/08/05 00:08:36;;;;;;;;;;;;;;;-144.99;nan;52413.44;4999866;28;19953;-63
2023/08/05 00:11:02;;;;;;;;;;;;;;;-144.99;nan;52435.88;4998298;28;20067;-63
2023/08/05 00:13:34;;;;;;;;;;;;;;;-144.99;nan;52437.91;5002728;28;20415;-63
2023/08/05 00:16:00;;;;;;;;;;;;;;;-144.99;nan;52456.25;4996968;28;20056;-62
2023/08/05 00:18:27;;;;;;;;;;;;;;;-144.99;nan;52419.56;5000556;28;19948;-61
2023/08/05 00:20:53;;;;;;;;;;;;;;;-144.99;nan;52456.25;4993057;28;19994;-63
2023/08/05 00:23:21;;;;;;;;;;;;;;;-144.99;nan;52452.16;4993401;28;20046;-62
2023/08/05 00:25:47;;;;;;;;;;;;;;;-144.99;nan;52444.03;4992494;28;19956;-62
2023/08/05 00:28:14;;;;;;;;;;;;;;;-144.99;nan;52452.16;4993703;28;20041;-63
2023/08/05 00:30:40;;;;;;;;;;;;;;;-144.99;nan;52444.03;4993899;28;19950;-64
2023/08/05 00:33:07;;;;;;;;;;;;;;;-144.99;nan;52419.56;5003768;28;20029;-64
2023/08/05 00:35:33;;;;;;;;;;;;;;;-144.99;nan;52452.16;5001399;28;19961;-61
2023/08/05 00:38:00;;;;;;;;;;;;;;;-144.99;nan;52456.25;4998068;28;20417;-64
2023/08/05 00:40:28;;;;;;;;;;;;;;;-144.99;nan;52444.03;4994922;28;19949;-65
2023/08/05 00:42:54;;;;;;;;;;;;;;;-144.99;nan;52444.03;5002656;28;20008;-63
2023/08/05 00:45:21;;;;;;;;;;;;;;;-144.99;nan;52452.16;4996603;28;19982;-63
2023/08/05 00:47:47;;;;;;;;;;;;;;;-144.99;nan;52435.88;5000986;28;20007;-63
2023/08/05 00:50:14;;;;;;;;;;;;;;;-144.99;nan;52444.03;4997600;28;20449;-64
2023/08/05 00:52:41;;;;;;;;;;;;;;;-144.99;nan;52431.78;5001608;28;20037;-63
2023/08/05 00:55:08;;;;;;;;;;;;;;;-144.99;nan;52411.41;4993156;28;20060;-63
2023/08/05 00:57:36;;;;;;;;;;;;;;;-144.99;nan;52441.97;4991162;28;20037;-62
2023/08/05 01:00:02;;;;;;;;;;;;;;;-144.99;nan;52419.56;4996005;28;20352;-62
2023/08/05 01:02:29;;;;;;;;;;;;;;;-144.99;nan;52409.38;4997271;28;20060;-63
2023/08/05 01:04:56;;;;;;;;;;;;;;;-144.99;nan;52444.03;5002202;28;20562;-62
2023/08/05 01:07:23;;;;;;;;;;;;;;;-144.99;nan;52429.75;4994475;28;19945;-62
2023/08/05 01:09:49;;;;;;;;;;;;;;;-144.99;nan;52435.88;5000294;28;20591;-63
2023/08/05 01:12:16;;;;;;;;;;;;;;;-144.99;nan;52423.63;4996370;28;20349;-63
2023/08/05 01:14:44;;;;;;;;;;;;;;;-144.99;nan;52419.56;4996730;28;20037;-62
2023/08/05 01:17:10;;;;;;;;;;;;;;;-144.99;nan;52427.72;4990051;28;20007;-62
2023/08/05 01:19:37;;;;;;;;;;;;;;;-144.99;nan;52423.63;4995328;28;20032;-62
2023/08/05 01:22:07;;;;;;;;;;;;;;;-144.99;nan;52423.63;5000805;28;20059;-61
2023/08/05 01:24:38;;;;;;;;;;;;;;;-144.99;nan;52399.19;5003213;28;19949;-61
2023/08/05 01:27:08;;;;;;;;;;;;;;;-144.99;nan;52448.09;4999657;28;19958;-62
2023/08/05 01:29:34;;;;;;;;;;;;;;;-144.99;nan;52472.56;4994433;28;19996;-61
2023/08/05 01:32:01;;;;;;;;;;;;;;;-144.99;nan;52437.91;4997019;28;20392;-60
2023/08/05 01:34:28;;;;;;;;;;;;;;;-144.99;nan;52419.56;4994684;28;20013;-64
2023/08/05 01:36:55;;;;;;;;;;;;;;;-144.99;nan;52429.75;4995710;28;20383;-63
2023/08/05 01:39:22;;;;;;;;;;;;;;;-144.99;nan;52427.72;4996267;28;19958;-65
2023/08/05 01:41:48;;;;;;;;;;;;;;;-144.99;nan;52423.63;4994749;28;20452;-66
2023/08/05 01:44:16;;;;;;;;;;;;;;;-144.99;nan;52435.88;5000071;28;19984;-65
2023/08/05 01:46:43;;;;;;;;;;;;;;;-144.99;nan;52435.88;4998297;28;19959;-65
2023/08/05 01:49:09;;;;;;;;;;;;;;;-144.99;nan;52435.88;5003117;28;20311;-64
2023/08/05 01:51:35;;;;;;;;;;;;;;;-144.99;nan;52444.03;5005369;28;19963;-65
2023/08/05 01:54:02;;;;;;;;;;;;;;;-144.99;nan;52407.31;4999181;28;19954;-66
2023/08/05 01:56:28;;;;;;;;;;;;;;;-144.99;nan;52444.03;4995608;28;19971;-66
2023/08/05 01:58:55;;;;;;;;;;;;;;;-144.99;nan;52435.88;5004356;28;19946;-66
2023/08/05 02:01:23;;;;;;;;;;;;;;;-144.99;nan;52444.03;4992545;28;20007;-66
2023/08/05 02:03:50;;;;;;;;;;;;;;;-144.99;nan;52427.72;4994708;28;20022;-65
2023/08/05 02:06:16;;;;;;;;;;;;;;;-144.99;nan;52448.09;4994311;28;19950;-66
2023/08/05 02:08:43;;;;;;;;;;;;;;;-144.99;nan;52423.63;4999030;28;19946;-65
2023/08/05 02:11:09;;;;;;;;;;;;;;;-144.99;nan;52444.03;4995493;28;20030;-66
2023/08/05 02:13:35;;;;;;;;;;;;;;;-144.99;nan;52439.94;5000322;28;19952;-66
2023/08/05 02:16:03;;;;;;;;;;;;;;;-144.99;nan;52427.72;4991525;28;20015;-66
2023/08/05 02:18:31;;;;;;;;;;;;;;;-144.99;nan;52431.78;4994442;28;20059;-65
2023/08/05 02:20:57;;;;;;;;;;;;;;;-144.99;nan;52460.31;4995423;28;19994;-65
2023/08/05 02:23:24;;;;;;;;;;;;;;;-144.99;nan;52399.19;5001553;28;19997;-65
2023/08/05 02:25:50;;;;;;;;;;;;;;;-144.99;nan;52448.09;4989772;28;19988;-63
2023/08/05 02:28:17;;;;;;;;;;;;;;;-144.99;nan;52427.72;4999586;28;20042;-64
2023/08/05 02:30:43;;;;;;;;;;;;;;;-144.99;nan;52452.16;4996549;28;19955;-65
2023/08/05 02:33:10;;;;;;;;;;;;;;;-144.99;nan;52450.13;5002897;28;19946;-65
2023/08/05 02:35:38;;;;;;;;;;;;;;;-144.99;nan;52444.03;4995787;28;20066;-65
2023/08/05 02:38:04;;;;;;;;;;;;;;;-144.99;nan;52435.88;4993789;28;20030;-65
2023/08/05 02:40:32;;;;;;;;;;;;;;;-144.99;nan;52452.16;4999352;28;20005;-65
2023/08/05 02:42:58;;;;;;;;;;;;;;;-144.99;nan;52448.09;4989746;28;20477;-65
2023/08/05 02:45:25;;;;;;;;;;;;;;;-144.99;nan;52468.47;4993079;28;20046;-65
2023/08/05 02:47:51;;;;;;;;;;;;;;;-144.99;nan;52407.31;4997329;28;19980;-66
2023/08/05 02:50:18;;;;;;;;;;;;;;;-144.99;nan;52448.09;4993921;28;19993;-65
2023/08/05 02:52:46;;;;;;;;;;;;;;;-144.99;nan;52435.88;4999719;28;20405;-66
2023/08/05 02:55:12;;;;;;;;;;;;;;;-144.99;nan;52427.72;4994652;28;20031;-63
2023/08/05 02:57:39;;;;;;;;;;;;;;;-144.99;nan;52448.09;4997687;28;20113;-64
2023/08/05 03:00:06;;;;;;;;;;;;;;;-144.99;nan;52421.59;5006603;28;19986;-63
2023/08/05 03:02:33;;;;;;;;;;;;;;;-144.99;nan;52464.41;4999875;28;19963;-63
2023/08/05 03:04:59;;;;;;;;;;;;;;;-144.99;nan;52421.59;4994996;28;20196;-63
2023/08/05 03:07:25;;;;;;;;;;;;;;;-144.99;nan;52386.94;5003075;28;19944;-64
2023/08/05 03:09:53;;;;;;;;;;;;;;;-144.99;nan;52448.09;5001022;28;20040;-63
2023/08/05 03:12:20;;;;;;;;;;;;;;;-144.99;nan;52431.78;5001636;28;20507;-63
2023/08/05 03:14:47;;;;;;;;;;;;;;;-144.99;nan;52384.91;4995036;28;19943;-64
2023/08/05 03:17:13;;;;;;;;;;;;;;;-144.99;nan;52456.25;4997694;28;20085;-63
2023/08/05 03:19:40;;;;;;;;;;;;;;;-144.99;nan;52425.66;5000796;28;19947;-64
2023/08/05 03:22:06;;;;;;;;;;;;;;;-144.99;nan;52423.63;5002659;28;20006;-64
2023/08/05 03:24:33;;;;;;;;;;;;;;;-144.99;nan;52419.56;4997682;28;19954;-65
2023/08/05 03:27:01;;;;;;;;;;;;;;;-144.99;nan;52423.63;5001512;28;20394;-64
2023/08/05 03:29:27;;;;;;;;;;;;;;;-144.99;nan;52435.88;4998206;28;19947;-63
2023/08/05 03:31:54;;;;;;;;;;;;;;;-144.99;nan;52407.31;4999019;28;20474;-62
2023/08/05 03:34:20;;;;;;;;;;;;;;;-144.99;nan;52423.63;4994705;28;19952;-64
2023/08/05 03:36:46;;;;;;;;;;;;;;;-144.99;nan;52411.41;4993986;28;20064;-63
2023/08/05 03:39:14;;;;;;;;;;;;;;;-144.99;nan;52409.38;4998476;28;20408;-63
2023/08/05 03:41:42;;;;;;;;;;;;;;;-144.99;nan;52439.94;5003144;28;20647;-64
2023/08/05 03:44:10;;;;;;;;;;;;;;;-144.99;nan;52419.56;4995744;28;19957;-64
2023/08/05 03:46:37;;;;;;;;;;;;;;;-144.99;nan;52435.88;5003793;28;20102;-65
2023/08/05 03:49:04;;;;;;;;;;;;;;;-144.99;nan;52419.56;5003168;28;19997;-64
2023/08/05 03:51:30;;;;;;;;;;;;;;;-144.99;nan;52439.94;4996033;28;20288;-65
2023/08/05 03:53:57;;;;;;;;;;;;;;;-144.99;nan;52407.31;4994501;28;19977;-64
2023/08/05 03:56:26;;;;;;;;;;;;;;;-144.99;nan;52382.88;4997109;28;20441;-64
2023/08/05 03:58:52;;;;;;;;;;;;;;;-144.99;nan;52435.88;4994928;28;20391;-65
2023/08/05 04:01:22;;;;;;;;;;;;;;;-144.99;nan;52409.38;4994939;28;20296;-63
2023/08/05 04:03:49;;;;;;;;;;;;;;;-144.99;nan;52391.03;4994888;28;20001;-63
2023/08/05 04:06:16;;;;;;;;;;;;;;;-144.99;nan;52450.13;4999784;28;20619;-64
2023/08/05 04:08:43;;;;;;;;;;;;;;;-144.99;nan;52435.88;5002013;28;19987;-63
2023/08/05 04:11:10;;;;;;;;;;;;;;;-144.99;nan;52429.75;4999826;28;19964;-66
2023/08/05 04:13:39;;;;;;;;;;;;;;;-144.99;nan;52431.78;5004257;28;20036;-65
2023/08/05 04:16:06;;;;;;;;;;;;;;;-144.99;nan;52423.63;4998374;28;19965;-65
2023/08/05 04:18:36;;;;;;;;;;;;;;;-144.99;nan;52452.16;4998599;28;19989;-66
2023/08/05 04:21:04;;;;;;;;;;;;;;;-144.99;nan;52419.56;4996101;28;19964;-67
2023/08/05 04:23:32;;;;;;;;;;;;;;;-144.99;nan;52395.09;5002108;28;20013;-66
2023/08/05 04:25:59;;;;;;;;;;;;;;;-144.99;nan;52415.47;4990468;28;19945;-66
2023/08/05 04:28:26;;;;;;;;;;;;;;;-144.99;nan;52439.94;4999549;28;19957;-68
2023/08/05 04:30:53;;;;;;;;;;;;;;;-144.99;nan;52431.78;5004631;28;19950;-66
2023/08/05 04:33:19;;;;;;;;;;;;;;;-144.99;nan;52425.66;5002042;28;20327;-67
2023/08/05 04:35:48;;;;;;;;;;;;;;;-144.99;nan;52415.47;4994281;28;19954;-66
2023/08/05 04:38:14;;;;;;;;;;;;;;;-144.99;nan;52488.84;4993100;28;19953;-65
2023/08/05 04:40:41;;;;;;;;;;;;;;;-144.99;nan;52419.56;5001128;28;20082;-63
2023/08/05 04:43:07;;;;;;;;;;;;;;;-144.99;nan;52423.63;4993305;28;20000;-63
2023/08/05 04:45:35;;;;;;;;;;;;;;;-144.99;nan;52409.38;4997672;28;20048;-63
2023/08/05 04:48:01;;;;;;;;;;;;;;;-144.99;nan;52411.41;5011823;23;19995;-61
2023/08/05 04:50:28;;;;;;;;;;;;;;;-144.99;nan;52423.63;5003296;28;20382;-61
2023/08/05 04:52:56;;;;;;;;;;;;;;;-144.99;nan;52407.31;4992559;28;19968;-66
2023/08/05 04:55:22;;;;;;;;;;;;;;;-144.99;nan;52415.47;4990810;28;19951;-66
2023/08/05 04:57:52;;;;;;;;;;;;;;;-144.99;nan;52427.72;4996781;28;20025;-64
2023/08/05 05:00:19;;;;;;;;;;;;;;;-144.99;nan;52407.31;4995363;28;19955;-65
2023/08/05 05:02:45;;;;;;;;;;;;;;;-144.99;nan;52423.63;4993966;28;20384;-69
2023/08/05 05:05:12;;;;;;;;;;;;;;;-144.99;nan;52431.78;4990339;28;20044;-68
2023/08/05 05:07:38;;;;;;;;;;;;;;;-144.99;nan;52444.03;4997068;28;20450;-68
2023/08/05 05:10:07;;;;;;;;;;;;;;;-144.99;nan;52448.09;4991605;28;20014;-68
2023/08/05 05:12:33;;;;;;;;;;;;;;;-144.99;nan;52433.81;4990458;28;20371;-65
2023/08/05 05:15:00;;;;;;;;;;;;;;;-144.99;nan;52384.91;4989024;28;20056;-66
2023/08/05 05:17:26;;;;;;;;;;;;;;;-144.99;nan;52393.06;4988870;28;20006;-66
2023/08/05 05:19:53;;;;;;;;;;;;;;;-144.99;nan;52427.72;4992462;28;19949;-66
2023/08/05 05:22:20;;;;;;;;;;;;;;;-144.99;nan;52415.47;4996545;28;20314;-66
2023/08/05 05:24:48;;;;;;;;;;;;;;;-144.99;nan;52425.66;4993274;28;20006;-62
2023/08/05 05:27:17;;;;;;;;;;;;;;;-144.99;nan;52421.59;4989641;28;20401;-62
2023/08/05 05:29:44;;;;;;;;;;;;;;;-144.99;nan;52403.25;4997262;28;19969;-61
2023/08/05 05:32:11;;;;;;;;;;;;;;;-144.99;nan;52407.31;4994711;28;19970;-63
2023/08/05 05:34:37;;;;;;;;;;;;;;;-144.99;nan;52386.94;4989090;28;19991;-61
2023/08/05 05:37:04;;;;;;;;;;;;;;;-144.99;nan;52409.38;4992529;28;19961;-61
2023/08/05 05:39:32;;;;;;;;;;;;;;;-144.99;nan;52399.19;4989936;28;20112;-61
2023/08/05 05:41:58;;;;;;;;;;;;;;;-144.99;nan;52374.72;4989985;28;19969;-61
2023/08/05 05:44:27;;;;;;;;;;;;;;;-144.99;nan;52391.03;4988806;28;19953;-62
2023/08/05 05:46:54;;;;;;;;;;;;;;;-144.99;nan;52374.72;4985750;28;19948;-62
2023/08/05 05:49:20;;;;;;;;;;;;;;;-144.99;nan;52374.72;4994758;28;20014;-62
2023/08/05 05:51:47;;;;;;;;;;;;;;;-144.99;nan;52391.03;4999920;28;19958;-62
2023/08/05 05:54:14;;;;;;;;;;;;;;;-144.99;nan;52415.47;4988956;28;19951;-62
2023/08/05 05:56:40;;;;;;;;;;;;;;;-144.99;nan;52366.56;4988747;28;20045;-63
2023/08/05 05:59:07;;;;;;;;;;;;;;;-144.99;nan;52413.44;4989326;28;19985;-63
2023/08/05 06:01:35;;;;;;;;;;;;;;;-144.99;nan;52378.78;4989249;28;19965;-64
2023/08/05 06:04:02;;;;;;;;;;;;;;;-144.99;nan;52354.34;4982236;28;20046;-64
2023/08/05 06:06:29;;;;;;;;;;;;;;;-144.99;nan;52395.09;4991855;28;19950;-64
2023/08/05 06:08:55;;;;;;;;;;;;;;;-144.99;nan;52374.72;4977963;28;20030;-64
2023/08/05 06:11:22;;;;;;;;;;;;;;;-144.99;nan;52386.94;4988433;28;20320;-64
2023/08/05 06:13:48;;;;;;;;;;;;;;;-144.99;nan;52399.19;4989231;28;19998;-64
2023/08/05 06:16:15;;;;;;;;;;;;;;;-144.99;nan;52395.09;4988787;28;20414;-65
2023/08/05 06:18:43;;;;;;;;;;;;;;;-144.99;nan;52370.63;4994674;28;20039;-65
2023/08/05 06:21:09;;;;;;;;;;;;;;;-144.99;nan;52370.63;4988329;28;19967;-65
2023/08/05 06:23:35;;;;;;;;;;;;;;;-144.99;nan;52354.34;4982659;28;20025;-65
2023/08/05 06:26:02;;;;;;;;;;;;;;;-144.99;nan;52374.72;4992050;28;20312;-64
2023/08/05 06:28:28;;;;;;;;;;;;;;;-144.99;nan;52403.25;4989801;28;19951;-65
2023/08/05 06:30:56;;;;;;;;;;;;;;;-144.99;nan;52370.63;4990555;28;20450;-65
2023/08/05 06:33:22;;;;;;;;;;;;;;;-144.99;nan;52370.63;4988669;28;20017;-65
2023/08/05 06:35:50;;;;;;;;;;;;;;;-144.99;nan;52350.25;4991933;28;20002;-64
2023/08/05 06:38:16;;;;;;;;;;;;;;;-144.99;nan;52362.50;4992092;28;19973;-63
2023/08/05 06:40:44;;;;;;;;;;;;;;;-144.99;nan;52395.09;4997283;28;19978;-61
2023/08/05 06:43:10;;;;;;;;;;;;;;;-144.99;nan;52354.34;4996882;28;20425;-61
2023/08/05 06:45:37;;;;;;;;;;;;;;;-144.99;nan;52350.25;4987965;28;19949;-61
2023/08/05 06:48:03;;;;;;;;;;;;;;;-144.99;nan;52344.16;4991866;28;20068;-61
2023/08/05 06:50:30;;;;;;;;;;;;;;;-144.99;nan;52358.41;4995404;28;19946;-61
2023/08/05 06:52:58;;;;;;;;;;;;;;;-144.99;nan;52350.25;4998847;28;19959;-65
2023/08/05 06:55:24;;;;;;;;;;;;;;;-144.99;nan;52370.63;4981525;28;20437;-66
2023/08/05 06:57:51;;;;;;;;;;;;;;;-144.99;nan;52368.59;4990237;28;20047;-64
2023/08/05 07:00:17;;;;;;;;;;;;;;;-144.99;nan;52342.09;4991725;28;19956;-65
2023/08/05 07:02:44;;;;;;;;;;;;;;;-144.99;nan;52376.75;4991753;28;20451;-65
2023/08/05 07:05:10;;;;;;;;;;;;;;;-144.99;nan;52350.25;4991457;28;19981;-65
2023/08/05 07:07:37;;;;;;;;;;;;;;;-144.99;nan;52317.66;4992383;28;19954;-65
2023/08/05 07:10:07;;;;;;;;;;;;;;;-144.99;nan;52344.16;4999744;28;19941;-65
2023/08/05 07:12:34;;;;;;;;;;;;;;;-144.99;nan;52354.34;4990698;28;20014;-65
2023/08/05 07:15:00;;;;;;;;;;;;;;;-144.99;nan;52325.81;4995898;28;19942;-66
2023/08/05 07:17:27;;;;;;;;;;;;;;;-144.99;nan;52329.88;4990779;28;20454;-66
2023/08/05 07:19:54;;;;;;;;;;;;;;;-144.99;nan;52319.69;4986974;28;19989;-65
2023/08/05 07:22:20;;;;;;;;;;;;;;;-144.99;nan;52317.66;4990895;28;20021;-65
2023/08/05 07:24:47;;;;;;;;;;;;;;;-144.99;nan;52374.72;4985945;28;20028;-65
2023/08/05 07:27:15;;;;;;;;;;;;;;;-144.99;nan;52329.88;4991647;28;20008;-65
2023/08/05 07:29:43;;;;;;;;;;;;;;;-144.99;nan;52354.34;5001664;28;20008;-66
2023/08/05 07:32:09;;;;;;;;;;;;;;;-144.99;nan;52338.03;5005149;28;19980;-75
2023/08/05 07:34:36;;;;;;;;;;;;;;;-144.99;nan;52333.94;4993137;28;19988;-75
2023/08/05 07:37:02;;;;;;;;;;;;;;;-144.99;nan;52346.19;4993707;28;19964;-75
2023/08/05 07:39:33;;;;;;;;;;;;;;;-144.99;nan;52344.16;4991921;28;20569;-75
2023/08/05 07:42:00;;;;;;;;;;;;;;;-144.99;nan;52348.22;4985908;28;19959;-73
2023/08/05 07:44:30;;;;;;;;;;;;;;;-144.99;nan;52356.38;4987707;28;19945;-74
2023/08/05 07:46:57;;;;;;;;;;;;;;;-144.99;nan;52325.81;4980304;28;19976;-74
2023/08/05 07:49:24;;;;;;;;;;;;;;;-144.99;nan;52393.06;4992399;28;20422;-78
2023/08/05 07:51:51;;;;;;;;;;;;;;;-144.99;nan;52358.41;5000223;28;19965;-77
2023/08/05 07:54:18;;;;;;;;;;;;;;;-144.99;nan;52321.72;4988636;28;20445;-77
2023/08/05 07:56:45;;;;;;;;;;;;;;;-144.99;nan;52305.41;4991914;28;20496;-78
2023/08/05 07:59:12;;;;;;;;;;;;;;;-144.99;nan;52350.25;4991862;28;19957;-78
2023/08/05 08:01:45;;;;;;;;;;;;;;;-144.99;nan;52350.25;4991852;28;19974;-78
2023/08/05 08:04:13;;;;;;;;;;;;;;;-144.99;nan;52317.66;5005718;28;19946;-77
2023/08/05 08:06:40;;;;;;;;;;;;;;;-144.99;nan;52321.72;5011620;28;20021;-78
2023/08/05 08:09:07;;;;;;;;;;;;;;;-144.99;nan;52356.38;4985552;28;20414;-77
2023/08/05 08:11:33;;;;;;;;;;;;;;;-144.99;nan;52350.25;4991769;28;20442;-78
2023/08/05 08:14:00;;;;;;;;;;;;;;;-144.99;nan;52350.25;4997252;28;19946;-79
2023/08/05 08:16:26;;;;;;;;;;;;;;;-144.99;nan;52346.19;4988986;28;20014;-78
2023/08/05 08:18:54;;;;;;;;;;;;;;;-144.99;nan;52305.41;4988685;28;19963;-78
2023/08/05 08:21:21;;;;;;;;;;;;;;;-144.99;nan;52325.81;4992218;28;19964;-78
2023/08/05 08:23:48;;;;;;;;;;;;;;;-144.99;nan;52289.13;4984702;28;19964;-78
2023/08/05 08:26:14;;;;;;;;;;;;;;;-144.99;nan;52289.13;4991661;28;19949;-78
2023/08/05 08:28:41;;;;;;;;;;;;;;;-144.99;nan;52305.41;4988818;28;19948;-78
2023/08/05 08:31:08;;;;;;;;;;;;;;;-144.99;nan;52325.81;4989006;28;20076;-78
2023/08/05 08:33:34;;;;;;;;;;;;;;;-144.99;nan;52315.59;4989686;28;20167;-79
2023/08/05 08:36:02;;;;;;;;;;;;;;;-144.99;nan;52331.91;4991206;28;19952;-78
2023/08/05 08:38:28;;;;;;;;;;;;;;;-144.99;nan;52350.25;4991252;28;20514;-78
2023/08/05 08:40:57;;;;;;;;;;;;;;;-144.99;nan;52336.00;4985378;28;19982;-78
2023/08/05 08:43:24;;;;;;;;;;;;;;;-144.99;nan;52350.25;4995125;28;20010;-78
2023/08/05 08:45:52;;;;;;;;;;;;;;;-144.99;nan;52313.56;5006128;28;19933;-79
2023/08/05 08:48:18;;;;;;;;;;;;;;;-144.99;nan;52301.34;5002758;28;19951;-77
2023/08/05 08:50:46;;;;;;;;;;;;;;;-144.99;nan;52321.72;5003501;28;19984;-77
2023/08/05 08:53:14;;;;;;;;;;;;;;;-144.99;nan;52317.66;5011476;28;19948;-78
2023/08/05 08:55:41;;;;;;;;;;;;;;;-144.99;nan;52342.09;4998773;28;19984;-78
2023/08/05 08:58:07;;;;;;;;;;;;;;;-144.99;nan;52309.50;5007788;28;20382;-76
2023/08/05 09:00:35;;;;;;;;;;;;;;;-144.99;nan;52338.03;5006710;28;19965;-77
2023/08/05 09:03:02;;;;;;;;;;;;;;;-144.99;nan;52321.72;5003630;28;19967;-78
2023/08/05 09:05:30;;;;;;;;;;;;;;;-144.99;nan;52317.66;5002967;28;20032;-77
2023/08/05 09:07:57;;;;;;;;;;;;;;;-144.99;nan;52309.50;4990782;28;19984;-78
2023/08/05 09:10:25;;;;;;;;;;;;;;;-144.99;nan;52329.88;4996951;28;19952;-79
2023/08/05 09:12:52;;;;;;;;;;;;;;;-144.99;nan;52325.81;4999301;28;19965;-77
2023/08/05 09:15:21;;;;;;;;;;;;;;;-144.99;nan;52317.66;5000814;28;19948;-79
2023/08/05 09:17:48;;;;;;;;;;;;;;;-144.99;nan;52321.72;5001390;28;19969;-77
2023/08/05 09:20:20;;;;;;;;;;;;;;;-144.99;nan;52329.88;4995335;28;20016;-79
2023/08/05 09:22:53;;;;;;;;;;;;;;;-144.99;nan;52338.03;5008151;28;19966;-80
2023/08/05 09:25:20;;;;;;;;;;;;;;;-144.99;nan;52301.34;4999127;28;19944;-79
2023/08/05 09:27:50;;;;;;;;;;;;;;;-144.99;nan;52315.59;4996190;28;20171;-79
2023/08/05 09:30:17;;;;;;;;;;;;;;;-144.99;nan;52276.88;4999821;28;20019;-78
2023/08/05 09:32:44;;;;;;;;;;;;;;;-144.99;nan;52285.03;4987998;28;19967;-78
2023/08/05 09:35:11;;;;;;;;;;;;;;;-144.99;nan;52317.66;4994641;28;19965;-79
2023/08/05 09:37:37;;;;;;;;;;;;;;;-144.99;nan;52309.50;4995003;28;19997;-77
2023/08/05 09:40:05;;;;;;;;;;;;;;;-144.99;nan;52297.25;4996452;28;19992;-77
2023/08/05 09:42:32;;;;;;;;;;;;;;;-144.99;nan;52264.66;4992163;28;20051;-78
2023/08/05 09:45:02;;;;;;;;;;;;;;;-144.99;nan;52252.44;4996876;28;19948;-78
2023/08/05 09:47:30;;;;;;;;;;;;;;;-144.99;nan;52270.78;5001154;28;20030;-77
2023/08/05 09:49:58;;;;;;;;;;;;;;;-144.99;nan;52264.66;5002880;28;19942;-78
2023/08/05 09:52:26;;;;;;;;;;;;;;;-144.99;nan;52272.81;4984401;28;20486;-78
2023/08/05 09:54:57;;;;;;;;;;;;;;;-144.99;nan;52276.88;4990529;28;19942;-77
2023/08/05 09:57:25;;;;;;;;;;;;;;;-144.99;nan;52244.28;4985617;28;20002;-78
2023/08/05 09:59:53;;;;;;;;;;;;;;;-144.99;nan;52276.88;4985604;28;20042;-79
2023/08/05 10:02:24;;;;;;;;;;;;;;;-144.99;nan;52280.97;4991245;28;19970;-78
2023/08/05 10:04:53;;;;;;;;;;;;;;;-144.99;nan;52297.25;5009717;28;20098;-80
2023/08/05 10:07:20;;;;;;;;;;;;;;;-144.99;nan;52285.03;5000517;28;20442;-78
2023/08/05 10:09:48;;;;;;;;;;;;;;;-144.99;nan;52278.91;4990559;28;20045;-77
2023/08/05 10:12:15;;;;;;;;;;;;;;;-144.99;nan;52280.97;4987754;28;20469;-77
2023/08/05 10:14:42;;;;;;;;;;;;;;;-144.99;nan;52252.44;4981231;28;20014;-78
2023/08/05 10:17:09;;;;;;;;;;;;;;;-144.99;nan;52325.81;4994130;28;20401;-78
2023/08/05 10:19:37;;;;;;;;;;;;;;;-144.99;nan;52303.38;4986276;28;20422;-78
2023/08/05 10:22:07;;;;;;;;;;;;;;;-144.99;nan;52342.09;4989816;28;19975;-78
2023/08/05 10:24:48;;;;;;;;;;;;;;;-144.99;nan;52323.75;4985238;28;19949;-78
2023/08/05 10:27:15;;;;;;;;;;;;;;;-144.99;nan;52354.34;4991906;28;19960;-78
2023/08/05 10:29:51;;;;;;;;;;;;;;;-144.99;nan;52299.31;4992166;28;19958;-78
2023/08/05 10:32:17;;;;;;;;;;;;;;;-144.99;nan;52289.13;5001310;28;20466;-78
2023/08/05 10:35:05;;;;;;;;;;;;;;;-144.99;nan;52264.66;5005636;28;20065;-79
2023/08/05 10:37:47;;;;;;;;;;;;;;;-144.99;nan;52264.66;5015505;28;20055;-80
2023/08/05 10:40:13;;;;;;;;;;;;;;;-144.99;nan;52313.56;5014470;28;19954;-78
2023/08/05 10:42:40;;;;;;;;;;;;;;;-144.99;nan;52199.44;5018070;28;19957;-79
2023/08/05 10:45:09;;;;;;;;;;;;;;;-144.99;nan;52195.34;5017875;28;19955;-79
2023/08/05 10:47:35;;;;;;;;;;;;;;;-144.99;nan;52193.31;5010043;28;19956;-77
2023/08/05 10:50:03;;;;;;;;;;;;;;;-144.99;nan;52179.06;5006453;28;19945;-77
2023/08/05 10:52:30;;;;;;;;;;;;;;;-144.99;nan;52248.34;5023156;28;19993;-80
2023/08/05 10:54:58;;;;;;;;;;;;;;;-144.99;nan;52158.66;5022806;28;19952;-79
2023/08/05 10:57:43;;;;;;;;;;;;;;;-144.99;nan;52146.44;5018932;28;19951;-81
2023/08/05 11:00:17;;;;;;;;;;;;;;;-144.99;nan;52134.22;5006483;28;19936;-78
2023/08/05 11:02:46;;;;;;;;;;;;;;;-144.99;nan;52150.53;5020578;28;19962;-78
2023/08/05 11:05:14;;;;;;;;;;;;;;;-144.99;nan;52138.28;5002065;28;19973;-78
2023/08/05 11:07:42;;;;;;;;;;;;;;;-144.99;nan;52248.34;5015198;28;19952;-77
2023/08/05 11:10:09;;;;;;;;;;;;;;;-144.99;nan;52313.56;5016847;28;19956;-77
2023/08/05 11:12:38;;;;;;;;;;;;;;;-144.99;nan;52260.56;4997553;28;19967;-75
2023/08/05 11:15:05;;;;;;;;;;;;;;;-144.99;nan;52264.66;4995989;28;19973;-77
2023/08/05 11:17:31;;;;;;;;;;;;;;;-144.99;nan;52295.22;5001669;28;20051;-77
2023/08/05 11:19:58;;;;;;;;;;;;;;;-144.99;nan;52119.94;4992507;28;20085;-76
2023/08/05 11:22:27;;;;;;;;;;;;;;;-144.99;nan;52115.88;5004634;28;19964;-75
2023/08/05 11:24:57;;;;;;;;;;;;;;;-144.99;nan;52089.38;4992425;28;19952;-76
2023/08/05 11:27:31;;;;;;;;;;;;;;;-144.99;nan;52115.88;4982627;28;20377;-76
2023/08/05 11:29:58;;;;;;;;;;;;;;;-144.99;nan;52256.50;4995331;28;19987;-76
2023/08/05 11:32:25;;;;;;;;;;;;;;;-144.99;nan;52252.44;4990590;28;19974;-79
2023/08/05 11:35:00;;;;;;;;;;;;;;;-144.99;nan;52230.00;4996117;28;19974;-77
2023/08/05 11:37:34;;;;;;;;;;;;;;;-144.99;nan;52227.97;4978134;28;19955;-76
2023/08/05 11:40:01;;;;;;;;;;;;;;;-144.99;nan;52258.53;4989375;28;19968;-76
2023/08/05 11:42:27;;;;;;;;;;;;;;;-144.99;nan;52252.44;4997307;28;20007;-77
2023/08/05 11:44:54;;;;;;;;;;;;;;;-144.99;nan;52195.34;4979520;28;19993;-77
2023/08/05 11:47:20;;;;;;;;;;;;;;;-144.99;nan;52117.91;4988687;28;19949;-77
2023/08/05 11:49:51;;;;;;;;;;;;;;;-144.99;nan;52121.97;4998141;28;20000;-77
2023/08/05 11:52:17;;;;;;;;;;;;;;;-144.99;nan;52215.75;4981652;28;20070;-77
2023/08/05 11:54:55;;;;;;;;;;;;;;;-144.99;nan;52227.97;4999104;28;19947;-77
2023/08/05 11:57:22;;;;;;;;;;;;;;;-144.99;nan;52256.50;4985887;28;19992;-77
2023/08/05 11:59:49;;;;;;;;;;;;;;;-144.99;nan;52244.28;4985136;28;19969;-77
2023/08/05 12:02:16;;;;;;;;;;;;;;;-144.99;nan;52236.13;5005647;28;19988;-76
2023/08/05 12:04:43;;;;;;;;;;;;;;;-144.99;nan;52170.91;5003163;28;20011;-72
2023/08/05 12:07:11;;;;;;;;;;;;;;;-144.99;nan;52146.44;4993277;28;19974;-73
2023/08/05 12:09:37;;;;;;;;;;;;;;;-144.99;nan;52140.31;4989665;28;19955;-73
2023/08/05 12:12:06;;;;;;;;;;;;;;;-144.99;nan;52250.38;4988191;28;19957;-73
2023/08/05 12:14:33;;;;;;;;;;;;;;;-144.99;nan;52166.81;4990260;28;20050;-74
2023/08/05 12:16:59;;;;;;;;;;;;;;;-144.99;nan;52256.50;4993046;28;19981;-72
2023/08/05 12:19:26;;;;;;;;;;;;;;;-144.99;nan;52227.97;4990605;28;20043;-73
2023/08/05 12:21:52;;;;;;;;;;;;;;;-144.99;nan;52234.09;4989898;28;19963;-73
2023/08/05 12:24:19;;;;;;;;;;;;;;;-144.99;nan;52305.41;4989297;28;19943;-73
2023/08/05 12:26:46;;;;;;;;;;;;;;;-144.99;nan;52174.97;4989065;28;19950;-73
2023/08/05 12:29:15;;;;;;;;;;;;;;;-144.99;nan;52189.25;4990533;28;20185;-72
2023/08/05 12:31:42;;;;;;;;;;;;;;;-144.99;nan;52148.47;4991136;28;19962;-74
2023/08/05 12:34:08;;;;;;;;;;;;;;;-144.99;nan;52321.72;4989487;28;19955;-74
2023/08/05 12:36:35;;;;;;;;;;;;;;;-144.99;nan;52268.72;4988879;28;19954;-74
2023/08/05 12:39:01;;;;;;;;;;;;;;;-144.99;nan;52252.44;4985587;28;19968;-74
2023/08/05 12:41:28;;;;;;;;;;;;;;;-144.99;nan;52291.16;4988598;28;19985;-72
2023/08/05 12:43:54;;;;;;;;;;;;;;;-144.99;nan;52179.06;4990138;28;20033;-73
2023/08/05 12:46:22;;;;;;;;;;;;;;;-144.99;nan;52154.59;4974347;28;19946;-75
2023/08/05 12:48:49;;;;;;;;;;;;;;;-144.99;nan;52250.38;4984431;28;20509;-75